sensor_id;sensor_type;location;lat;lon;timestamp;temperature;humidity
43920;DHT22;29578;51.946;5.874;2022-12-18T00:01:41;-3.60;91.90
43920;DHT22;29578;51.946;5.874;2022-12-18T00:04:13;-3.60;91.90
43920;DHT22;29578;51.946;5.874;2022-12-18T00:06:39;-3.70;91.90
43920;DHT22;29578;51.946;5.874;2022-12-18T00:09:05;-3.70;91.90
43920;DHT22;29578;51.946;5.874;2022-12-18T00:11:31;-3.70;91.90
43920;DHT22;29578;51.946;5.874;2022-12-18T00:13:58;-3.70;91.90
43920;DHT22;29578;51.946;5.874;2022-12-18T00:16:26;-3.70;91.90
43920;DHT22;29578;51.946;5.874;2022-12-18T00:18:54;-3.80;91.90
43920;DHT22;29578;51.946;5.874;2022-12-18T00:21:21;-3.80;91.90
43920;DHT22;29578;51.946;5.874;2022-12-18T00:23:48;-3.80;91.90
43920;DHT22;29578;51.946;5.874;2022-12-18T00:26:17;-3.80;91.90
43920;DHT22;29578;51.946;5.874;2022-12-18T00:28:44;-3.80;91.90
43920;DHT22;29578;51.946;5.874;2022-12-18T00:31:13;-3.90;91.90
43920;DHT22;29578;51.946;5.874;2022-12-18T00:33:39;-3.90;91.90
43920;DHT22;29578;51.946;5.874;2022-12-18T00:36:07;-3.90;91.90
43920;DHT22;29578;51.946;5.874;2022-12-18T00:38:34;-4.00;91.90
43920;DHT22;29578;51.946;5.874;2022-12-18T00:41:00;-4.00;91.90
43920;DHT22;29578;51.946;5.874;2022-12-18T00:43:26;-4.00;91.90
43920;DHT22;29578;51.946;5.874;2022-12-18T00:45:52;-4.00;91.90
43920;DHT22;29578;51.946;5.874;2022-12-18T00:48:18;-4.10;91.90
43920;DHT22;29578;51.946;5.874;2022-12-18T00:50:43;-4.10;91.90
43920;DHT22;29578;51.946;5.874;2022-12-18T00:53:09;-4.10;91.90
43920;DHT22;29578;51.946;5.874;2022-12-18T00:55:37;-4.20;91.90
43920;DHT22;29578;51.946;5.874;2022-12-18T00:58:03;-4.10;91.90
43920;DHT22;29578;51.946;5.874;2022-12-18T01:00:28;-4.20;91.90
43920;DHT22;29578;51.946;5.874;2022-12-18T01:02:54;-4.30;91.80
43920;DHT22;29578;51.946;5.874;2022-12-18T01:05:20;-4.20;91.90
43920;DHT22;29578;51.946;5.874;2022-12-18T01:07:45;-4.30;91.90
43920;DHT22;29578;51.946;5.874;2022-12-18T01:10:12;-4.30;91.90
43920;DHT22;29578;51.946;5.874;2022-12-18T01:12:38;-4.30;91.90
43920;DHT22;29578;51.946;5.874;2022-12-18T01:15:05;-4.30;91.90
43920;DHT22;29578;51.946;5.874;2022-12-18T01:17:31;-4.30;91.90
43920;DHT22;29578;51.946;5.874;2022-12-18T01:19:57;-4.30;91.90
43920;DHT22;29578;51.946;5.874;2022-12-18T01:22:22;-4.30;91.90
43920;DHT22;29578;51.946;5.874;2022-12-18T01:24:48;-4.30;91.90
43920;DHT22;29578;51.946;5.874;2022-12-18T01:27:14;-4.40;92.10
43920;DHT22;29578;51.946;5.874;2022-12-18T01:29:39;-4.30;91.80
43920;DHT22;29578;51.946;5.874;2022-12-18T01:32:05;-4.40;91.80
43920;DHT22;29578;51.946;5.874;2022-12-18T01:34:31;-4.40;91.80
43920;DHT22;29578;51.946;5.874;2022-12-18T01:36:57;-4.40;91.80
43920;DHT22;29578;51.946;5.874;2022-12-18T01:39:22;-4.40;91.80
43920;DHT22;29578;51.946;5.874;2022-12-18T01:41:48;-4.50;91.80
43920;DHT22;29578;51.946;5.874;2022-12-18T01:47:48;-4.50;91.80
43920;DHT22;29578;51.946;5.874;2022-12-18T01:50:18;-4.40;91.80
43920;DHT22;29578;51.946;5.874;2022-12-18T01:52:53;-4.60;91.80
43920;DHT22;29578;51.946;5.874;2022-12-18T01:55:22;-4.50;91.80
43920;DHT22;29578;51.946;5.874;2022-12-18T01:57:52;-4.50;91.80
43920;DHT22;29578;51.946;5.874;2022-12-18T02:00:20;-4.60;91.80
43920;DHT22;29578;51.946;5.874;2022-12-18T02:02:48;-4.60;91.80
43920;DHT22;29578;51.946;5.874;2022-12-18T02:05:18;-4.70;91.70
43920;DHT22;29578;51.946;5.874;2022-12-18T02:07:58;-4.60;91.80
43920;DHT22;29578;51.946;5.874;2022-12-18T02:10:38;-4.60;91.80
43920;DHT22;29578;51.946;5.874;2022-12-18T02:13:18;-4.80;91.80
43920;DHT22;29578;51.946;5.874;2022-12-18T02:18:44;-4.60;91.90
43920;DHT22;29578;51.946;5.874;2022-12-18T02:24:31;-4.70;91.80
43920;DHT22;29578;51.946;5.874;2022-12-18T02:27:03;-4.70;91.80
43920;DHT22;29578;51.946;5.874;2022-12-18T02:29:36;-4.80;91.80
43920;DHT22;29578;51.946;5.874;2022-12-18T02:32:08;-4.80;91.80
43920;DHT22;29578;51.946;5.874;2022-12-18T02:34:37;-4.80;91.70
43920;DHT22;29578;51.946;5.874;2022-12-18T02:37:07;-4.90;91.70
43920;DHT22;29578;51.946;5.874;2022-12-18T02:39:36;-4.90;91.70
43920;DHT22;29578;51.946;5.874;2022-12-18T02:42:03;-4.90;91.70
43920;DHT22;29578;51.946;5.874;2022-12-18T02:44:34;-4.90;91.70
43920;DHT22;29578;51.946;5.874;2022-12-18T02:47:00;-4.90;91.80
43920;DHT22;29578;51.946;5.874;2022-12-18T02:49:49;-4.90;91.80
43920;DHT22;29578;51.946;5.874;2022-12-18T02:52:30;-5.00;91.80
43920;DHT22;29578;51.946;5.874;2022-12-18T02:55:07;-4.90;91.80
43920;DHT22;29578;51.946;5.874;2022-12-18T02:57:40;-5.00;91.70
43920;DHT22;29578;51.946;5.874;2022-12-18T03:00:12;-5.00;91.70
43920;DHT22;29578;51.946;5.874;2022-12-18T03:05:27;-5.00;91.70
43920;DHT22;29578;51.946;5.874;2022-12-18T03:08:07;-5.00;91.70
43920;DHT22;29578;51.946;5.874;2022-12-18T03:10:40;-5.10;91.70
43920;DHT22;29578;51.946;5.874;2022-12-18T03:13:09;-5.10;91.70
43920;DHT22;29578;51.946;5.874;2022-12-18T03:15:40;-5.10;91.70
43920;DHT22;29578;51.946;5.874;2022-12-18T03:18:12;-5.10;91.70
43920;DHT22;29578;51.946;5.874;2022-12-18T03:20:40;-5.00;91.70
43920;DHT22;29578;51.946;5.874;2022-12-18T03:23:11;-5.10;91.70
43920;DHT22;29578;51.946;5.874;2022-12-18T03:25:40;-5.10;91.70
43920;DHT22;29578;51.946;5.874;2022-12-18T03:28:12;-5.20;91.70
43920;DHT22;29578;51.946;5.874;2022-12-18T03:30:40;-5.20;91.70
43920;DHT22;29578;51.946;5.874;2022-12-18T03:33:10;-5.20;91.70
43920;DHT22;29578;51.946;5.874;2022-12-18T03:35:40;-5.20;91.70
43920;DHT22;29578;51.946;5.874;2022-12-18T03:38:08;-5.20;91.70
43920;DHT22;29578;51.946;5.874;2022-12-18T03:40:53;-5.20;91.70
43920;DHT22;29578;51.946;5.874;2022-12-18T03:43:44;-5.20;91.70
43920;DHT22;29578;51.946;5.874;2022-12-18T03:46:26;-5.10;91.70
43920;DHT22;29578;51.946;5.874;2022-12-18T03:48:59;-5.20;91.70
43920;DHT22;29578;51.946;5.874;2022-12-18T03:51:33;-5.20;91.70
43920;DHT22;29578;51.946;5.874;2022-12-18T03:54:04;-5.20;91.70
43920;DHT22;29578;51.946;5.874;2022-12-18T03:56:33;-5.20;91.70
43920;DHT22;29578;51.946;5.874;2022-12-18T03:59:02;-5.30;91.70
43920;DHT22;29578;51.946;5.874;2022-12-18T04:01:33;-5.30;91.70
43920;DHT22;29578;51.946;5.874;2022-12-18T04:04:01;-5.30;91.70
43920;DHT22;29578;51.946;5.874;2022-12-18T04:06:28;-5.30;91.60
43920;DHT22;29578;51.946;5.874;2022-12-18T04:08:54;-5.20;91.70
43920;DHT22;29578;51.946;5.874;2022-12-18T04:11:20;-5.30;91.60
43920;DHT22;29578;51.946;5.874;2022-12-18T04:13:46;-5.30;91.60
43920;DHT22;29578;51.946;5.874;2022-12-18T04:16:11;-5.30;91.60
43920;DHT22;29578;51.946;5.874;2022-12-18T04:18:37;-5.40;91.60
43920;DHT22;29578;51.946;5.874;2022-12-18T04:21:03;-5.40;91.60
43920;DHT22;29578;51.946;5.874;2022-12-18T04:23:28;-5.40;91.60
43920;DHT22;29578;51.946;5.874;2022-12-18T04:25:54;-5.40;91.60
43920;DHT22;29578;51.946;5.874;2022-12-18T04:28:20;-5.40;91.60
43920;DHT22;29578;51.946;5.874;2022-12-18T04:30:49;-5.40;91.60
43920;DHT22;29578;51.946;5.874;2022-12-18T04:33:18;-5.40;91.60
43920;DHT22;29578;51.946;5.874;2022-12-18T04:35:44;-5.40;91.60
43920;DHT22;29578;51.946;5.874;2022-12-18T04:38:10;-5.40;91.60
43920;DHT22;29578;51.946;5.874;2022-12-18T04:40:37;-5.30;91.60
43920;DHT22;29578;51.946;5.874;2022-12-18T04:43:03;-5.40;91.60
43920;DHT22;29578;51.946;5.874;2022-12-18T04:45:30;-5.40;91.60
43920;DHT22;29578;51.946;5.874;2022-12-18T04:47:58;-5.40;91.60
43920;DHT22;29578;51.946;5.874;2022-12-18T04:50:23;-5.40;91.60
43920;DHT22;29578;51.946;5.874;2022-12-18T04:52:49;-5.50;91.60
43920;DHT22;29578;51.946;5.874;2022-12-18T04:55:15;-5.40;91.60
43920;DHT22;29578;51.946;5.874;2022-12-18T04:57:41;-5.40;91.60
43920;DHT22;29578;51.946;5.874;2022-12-18T05:00:07;-5.40;91.60
43920;DHT22;29578;51.946;5.874;2022-12-18T05:02:33;-5.30;91.60
43920;DHT22;29578;51.946;5.874;2022-12-18T05:04:58;-5.40;91.60
43920;DHT22;29578;51.946;5.874;2022-12-18T05:07:24;-5.40;91.60
43920;DHT22;29578;51.946;5.874;2022-12-18T05:09:49;-5.40;91.60
43920;DHT22;29578;51.946;5.874;2022-12-18T05:12:15;-5.40;91.60
43920;DHT22;29578;51.946;5.874;2022-12-18T05:14:41;-5.40;91.60
43920;DHT22;29578;51.946;5.874;2022-12-18T05:17:06;-5.50;91.50
43920;DHT22;29578;51.946;5.874;2022-12-18T05:19:32;-5.50;91.50
43920;DHT22;29578;51.946;5.874;2022-12-18T05:21:58;-5.50;91.60
43920;DHT22;29578;51.946;5.874;2022-12-18T05:24:23;-5.50;91.60
43920;DHT22;29578;51.946;5.874;2022-12-18T05:26:49;-5.50;91.60
43920;DHT22;29578;51.946;5.874;2022-12-18T05:29:15;-5.50;91.60
43920;DHT22;29578;51.946;5.874;2022-12-18T05:31:40;-5.60;91.60
43920;DHT22;29578;51.946;5.874;2022-12-18T05:34:06;-5.60;91.60
43920;DHT22;29578;51.946;5.874;2022-12-18T05:36:32;-5.60;91.60
43920;DHT22;29578;51.946;5.874;2022-12-18T05:38:57;-5.60;91.60
43920;DHT22;29578;51.946;5.874;2022-12-18T05:41:23;-5.60;91.60
43920;DHT22;29578;51.946;5.874;2022-12-18T05:43:49;-5.60;91.60
43920;DHT22;29578;51.946;5.874;2022-12-18T05:46:16;-5.60;91.60
43920;DHT22;29578;51.946;5.874;2022-12-18T05:48:44;-5.60;91.60
43920;DHT22;29578;51.946;5.874;2022-12-18T05:51:13;-5.60;91.60
43920;DHT22;29578;51.946;5.874;2022-12-18T05:53:40;-5.60;91.60
43920;DHT22;29578;51.946;5.874;2022-12-18T05:56:09;-5.60;91.60
43920;DHT22;29578;51.946;5.874;2022-12-18T05:58:34;-5.60;91.50
43920;DHT22;29578;51.946;5.874;2022-12-18T06:01:13;-5.60;91.50
43920;DHT22;29578;51.946;5.874;2022-12-18T06:03:39;-5.60;91.50
43920;DHT22;29578;51.946;5.874;2022-12-18T06:06:13;-5.60;91.50
43920;DHT22;29578;51.946;5.874;2022-12-18T06:08:39;-5.60;91.50
43920;DHT22;29578;51.946;5.874;2022-12-18T06:11:05;-5.60;91.50
43920;DHT22;29578;51.946;5.874;2022-12-18T06:13:30;-5.60;91.50
43920;DHT22;29578;51.946;5.874;2022-12-18T06:15:56;-5.60;91.50
43920;DHT22;29578;51.946;5.874;2022-12-18T06:18:22;-5.60;91.50
43920;DHT22;29578;51.946;5.874;2022-12-18T06:20:55;-5.60;91.50
43920;DHT22;29578;51.946;5.874;2022-12-18T06:23:21;-5.60;91.50
43920;DHT22;29578;51.946;5.874;2022-12-18T06:25:47;-5.60;91.50
43920;DHT22;29578;51.946;5.874;2022-12-18T06:28:12;-5.60;91.50
43920;DHT22;29578;51.946;5.874;2022-12-18T06:30:38;-5.50;91.50
43920;DHT22;29578;51.946;5.874;2022-12-18T06:33:04;-5.50;91.40
43920;DHT22;29578;51.946;5.874;2022-12-18T06:35:29;-5.50;91.40
43920;DHT22;29578;51.946;5.874;2022-12-18T06:37:55;-5.50;91.40
43920;DHT22;29578;51.946;5.874;2022-12-18T06:40:20;-5.60;91.40
43920;DHT22;29578;51.946;5.874;2022-12-18T06:42:46;-5.50;91.40
43920;DHT22;29578;51.946;5.874;2022-12-18T06:45:15;-5.50;91.40
43920;DHT22;29578;51.946;5.874;2022-12-18T06:47:40;-5.50;91.40
43920;DHT22;29578;51.946;5.874;2022-12-18T06:50:06;-5.50;91.40
43920;DHT22;29578;51.946;5.874;2022-12-18T06:52:33;-5.40;91.40
43920;DHT22;29578;51.946;5.874;2022-12-18T06:55:00;-5.40;91.40
43920;DHT22;29578;51.946;5.874;2022-12-18T06:57:25;-5.40;91.40
43920;DHT22;29578;51.946;5.874;2022-12-18T06:59:52;-5.50;91.30
43920;DHT22;29578;51.946;5.874;2022-12-18T07:02:17;-5.40;91.30
43920;DHT22;29578;51.946;5.874;2022-12-18T07:04:43;-5.40;91.30
43920;DHT22;29578;51.946;5.874;2022-12-18T07:07:08;-5.40;91.30
43920;DHT22;29578;51.946;5.874;2022-12-18T07:09:34;-5.40;91.30
43920;DHT22;29578;51.946;5.874;2022-12-18T07:12:00;-5.50;91.30
43920;DHT22;29578;51.946;5.874;2022-12-18T07:14:25;-5.40;91.30
43920;DHT22;29578;51.946;5.874;2022-12-18T07:16:51;-5.40;91.40
43920;DHT22;29578;51.946;5.874;2022-12-18T07:19:16;-5.40;91.40
43920;DHT22;29578;51.946;5.874;2022-12-18T07:21:42;-5.50;91.30
43920;DHT22;29578;51.946;5.874;2022-12-18T07:24:08;-5.40;91.30
43920;DHT22;29578;51.946;5.874;2022-12-18T07:26:33;-5.40;91.30
43920;DHT22;29578;51.946;5.874;2022-12-18T07:28:59;-5.40;91.30
43920;DHT22;29578;51.946;5.874;2022-12-18T07:31:26;-5.30;91.30
43920;DHT22;29578;51.946;5.874;2022-12-18T07:33:52;-5.40;91.30
43920;DHT22;29578;51.946;5.874;2022-12-18T07:36:18;-5.30;91.30
43920;DHT22;29578;51.946;5.874;2022-12-18T07:38:46;-5.30;91.30
43920;DHT22;29578;51.946;5.874;2022-12-18T07:41:13;-5.40;91.30
43920;DHT22;29578;51.946;5.874;2022-12-18T07:43:39;-5.40;91.30
43920;DHT22;29578;51.946;5.874;2022-12-18T07:46:06;-5.30;91.30
43920;DHT22;29578;51.946;5.874;2022-12-18T07:48:32;-5.40;91.30
43920;DHT22;29578;51.946;5.874;2022-12-18T07:51:00;-5.30;91.30
43920;DHT22;29578;51.946;5.874;2022-12-18T07:53:26;-5.30;91.30
43920;DHT22;29578;51.946;5.874;2022-12-18T07:55:57;-5.30;91.30
43920;DHT22;29578;51.946;5.874;2022-12-18T07:58:22;-5.30;91.30
43920;DHT22;29578;51.946;5.874;2022-12-18T08:00:48;-5.30;91.20
43920;DHT22;29578;51.946;5.874;2022-12-18T08:03:14;-5.20;91.30
43920;DHT22;29578;51.946;5.874;2022-12-18T08:05:39;-5.20;91.20
43920;DHT22;29578;51.946;5.874;2022-12-18T08:08:05;-5.10;91.20
43920;DHT22;29578;51.946;5.874;2022-12-18T08:10:31;-5.10;91.20
43920;DHT22;29578;51.946;5.874;2022-12-18T08:12:56;-5.00;91.20
43920;DHT22;29578;51.946;5.874;2022-12-18T08:15:22;-5.00;91.20
43920;DHT22;29578;51.946;5.874;2022-12-18T08:17:48;-4.90;91.20
43920;DHT22;29578;51.946;5.874;2022-12-18T08:20:13;-4.80;91.20
43920;DHT22;29578;51.946;5.874;2022-12-18T08:22:41;-4.80;91.10
43920;DHT22;29578;51.946;5.874;2022-12-18T08:25:07;-4.70;91.10
43920;DHT22;29578;51.946;5.874;2022-12-18T08:27:33;-4.60;91.10
43920;DHT22;29578;51.946;5.874;2022-12-18T08:29:59;-4.60;91.00
43920;DHT22;29578;51.946;5.874;2022-12-18T08:32:25;-4.50;91.00
43920;DHT22;29578;51.946;5.874;2022-12-18T08:34:52;-4.40;91.00
43920;DHT22;29578;51.946;5.874;2022-12-18T08:37:17;-4.40;90.90
43920;DHT22;29578;51.946;5.874;2022-12-18T08:39:43;-4.10;91.00
43920;DHT22;29578;51.946;5.874;2022-12-18T08:42:09;-4.10;90.90
43920;DHT22;29578;51.946;5.874;2022-12-18T08:44:49;-4.10;90.80
43920;DHT22;29578;51.946;5.874;2022-12-18T08:47:15;-4.00;90.70
43920;DHT22;29578;51.946;5.874;2022-12-18T08:49:41;-4.00;90.70
43920;DHT22;29578;51.946;5.874;2022-12-18T08:52:06;-3.80;90.70
43920;DHT22;29578;51.946;5.874;2022-12-18T08:54:32;-3.70;90.60
43920;DHT22;29578;51.946;5.874;2022-12-18T08:56:57;-3.60;90.60
43920;DHT22;29578;51.946;5.874;2022-12-18T08:59:23;-3.60;90.60
43920;DHT22;29578;51.946;5.874;2022-12-18T09:01:49;-3.50;90.60
43920;DHT22;29578;51.946;5.874;2022-12-18T09:04:14;-3.50;90.50
43920;DHT22;29578;51.946;5.874;2022-12-18T09:06:40;-3.50;90.50
43920;DHT22;29578;51.946;5.874;2022-12-18T09:09:06;-3.40;90.50
43920;DHT22;29578;51.946;5.874;2022-12-18T09:11:33;-3.30;90.50
43920;DHT22;29578;51.946;5.874;2022-12-18T09:14:00;-3.20;90.50
43920;DHT22;29578;51.946;5.874;2022-12-18T09:16:27;-3.20;90.40
43920;DHT22;29578;51.946;5.874;2022-12-18T09:18:55;-3.10;90.40
43920;DHT22;29578;51.946;5.874;2022-12-18T09:21:25;-3.00;90.40
43920;DHT22;29578;51.946;5.874;2022-12-18T09:23:53;-2.90;90.40
43920;DHT22;29578;51.946;5.874;2022-12-18T09:26:20;-2.90;90.30
43920;DHT22;29578;51.946;5.874;2022-12-18T09:28:45;-2.90;90.30
43920;DHT22;29578;51.946;5.874;2022-12-18T09:31:15;-2.70;90.30
43920;DHT22;29578;51.946;5.874;2022-12-18T09:33:41;-2.60;90.20
43920;DHT22;29578;51.946;5.874;2022-12-18T09:36:09;-2.60;90.20
43920;DHT22;29578;51.946;5.874;2022-12-18T09:38:35;-2.50;90.20
43920;DHT22;29578;51.946;5.874;2022-12-18T09:41:15;-2.50;90.20
43920;DHT22;29578;51.946;5.874;2022-12-18T09:43:47;-2.30;90.20
43920;DHT22;29578;51.946;5.874;2022-12-18T09:46:19;-2.30;90.20
43920;DHT22;29578;51.946;5.874;2022-12-18T09:48:49;-2.30;90.10
43920;DHT22;29578;51.946;5.874;2022-12-18T09:51:21;-2.10;90.10
43920;DHT22;29578;51.946;5.874;2022-12-18T09:53:53;-2.20;90.10
43920;DHT22;29578;51.946;5.874;2022-12-18T09:56:21;-2.10;90.10
43920;DHT22;29578;51.946;5.874;2022-12-18T09:58:59;-2.10;90.00
43920;DHT22;29578;51.946;5.874;2022-12-18T10:01:26;-2.00;90.10
43920;DHT22;29578;51.946;5.874;2022-12-18T10:03:54;-1.90;90.10
43920;DHT22;29578;51.946;5.874;2022-12-18T10:06:29;-2.00;90.00
43920;DHT22;29578;51.946;5.874;2022-12-18T10:09:27;-1.90;90.00
43920;DHT22;29578;51.946;5.874;2022-12-18T10:12:19;-1.80;90.10
43920;DHT22;29578;51.946;5.874;2022-12-18T10:14:53;-1.80;90.10
43920;DHT22;29578;51.946;5.874;2022-12-18T10:17:42;-1.80;90.30
43920;DHT22;29578;51.946;5.874;2022-12-18T10:20:27;-1.70;90.00
43920;DHT22;29578;51.946;5.874;2022-12-18T10:23:22;-1.60;90.00
43920;DHT22;29578;51.946;5.874;2022-12-18T10:26:02;-1.60;90.00
43920;DHT22;29578;51.946;5.874;2022-12-18T10:28:31;-1.50;90.00
43920;DHT22;29578;51.946;5.874;2022-12-18T10:30:58;-1.30;90.00
43920;DHT22;29578;51.946;5.874;2022-12-18T10:33:27;-1.40;90.00
43920;DHT22;29578;51.946;5.874;2022-12-18T10:35:54;-1.30;90.00
43920;DHT22;29578;51.946;5.874;2022-12-18T10:38:26;-1.20;90.00
43920;DHT22;29578;51.946;5.874;2022-12-18T10:40:57;-1.10;90.00
43920;DHT22;29578;51.946;5.874;2022-12-18T10:43:32;-1.20;89.90
43920;DHT22;29578;51.946;5.874;2022-12-18T10:46:14;-1.20;89.90
43920;DHT22;29578;51.946;5.874;2022-12-18T10:48:51;-1.10;89.80
43920;DHT22;29578;51.946;5.874;2022-12-18T10:51:30;-1.00;89.80
43920;DHT22;29578;51.946;5.874;2022-12-18T10:54:05;-1.00;89.80
43920;DHT22;29578;51.946;5.874;2022-12-18T10:56:34;-1.00;89.70
43920;DHT22;29578;51.946;5.874;2022-12-18T10:59:03;-0.90;89.70
43920;DHT22;29578;51.946;5.874;2022-12-18T11:01:54;-0.70;89.80
43920;DHT22;29578;51.946;5.874;2022-12-18T11:04:25;-0.80;89.70
43920;DHT22;29578;51.946;5.874;2022-12-18T11:06:55;-0.70;89.70
43920;DHT22;29578;51.946;5.874;2022-12-18T11:09:24;-0.70;89.70
43920;DHT22;29578;51.946;5.874;2022-12-18T11:11:51;-0.70;89.60
43920;DHT22;29578;51.946;5.874;2022-12-18T11:14:23;-0.60;89.70
43920;DHT22;29578;51.946;5.874;2022-12-18T11:16:51;-0.60;89.60
43920;DHT22;29578;51.946;5.874;2022-12-18T11:19:30;-0.60;89.60
43920;DHT22;29578;51.946;5.874;2022-12-18T11:21:57;-0.50;89.60
43920;DHT22;29578;51.946;5.874;2022-12-18T11:24:30;-0.50;89.60
43920;DHT22;29578;51.946;5.874;2022-12-18T11:26:59;-0.40;89.60
43920;DHT22;29578;51.946;5.874;2022-12-18T11:29:36;-0.40;89.60
43920;DHT22;29578;51.946;5.874;2022-12-18T11:32:25;-0.40;89.50
43920;DHT22;29578;51.946;5.874;2022-12-18T11:35:01;-0.30;89.50
43920;DHT22;29578;51.946;5.874;2022-12-18T11:37:28;-0.30;89.50
43920;DHT22;29578;51.946;5.874;2022-12-18T11:40:00;-0.20;89.40
43920;DHT22;29578;51.946;5.874;2022-12-18T11:42:38;-0.20;89.40
43920;DHT22;29578;51.946;5.874;2022-12-18T11:45:29;-0.10;89.40
43920;DHT22;29578;51.946;5.874;2022-12-18T11:48:00;-0.10;89.40
43920;DHT22;29578;51.946;5.874;2022-12-18T11:50:38;-0.10;89.30
43920;DHT22;29578;51.946;5.874;2022-12-18T11:53:11;0.00;89.40
43920;DHT22;29578;51.946;5.874;2022-12-18T11:55:50;0.00;89.20
43920;DHT22;29578;51.946;5.874;2022-12-18T11:58:34;0.00;89.20
43920;DHT22;29578;51.946;5.874;2022-12-18T12:10:00;0.20;89.00
43920;DHT22;29578;51.946;5.874;2022-12-18T12:18:31;0.20;89.00
43920;DHT22;29578;51.946;5.874;2022-12-18T12:21:14;0.30;89.00
43920;DHT22;29578;51.946;5.874;2022-12-18T12:26:43;0.30;88.90
43920;DHT22;29578;51.946;5.874;2022-12-18T12:29:25;0.30;88.90
43920;DHT22;29578;51.946;5.874;2022-12-18T12:32:33;0.40;89.00
43920;DHT22;29578;51.946;5.874;2022-12-18T12:40:51;0.40;88.90
43920;DHT22;29578;51.946;5.874;2022-12-18T12:46:11;0.50;88.90
43920;DHT22;29578;51.946;5.874;2022-12-18T12:48:44;0.50;88.90
43920;DHT22;29578;51.946;5.874;2022-12-18T12:51:17;0.40;88.80
43920;DHT22;29578;51.946;5.874;2022-12-18T12:53:43;0.50;88.90
43920;DHT22;29578;51.946;5.874;2022-12-18T12:56:13;0.50;88.90
43920;DHT22;29578;51.946;5.874;2022-12-18T12:59:02;0.60;88.90
43920;DHT22;29578;51.946;5.874;2022-12-18T13:07:15;0.50;88.90
43920;DHT22;29578;51.946;5.874;2022-12-18T13:12:59;0.50;88.80
43920;DHT22;29578;51.946;5.874;2022-12-18T13:15:37;0.50;88.80
43920;DHT22;29578;51.946;5.874;2022-12-18T13:18:23;0.60;88.80
43920;DHT22;29578;51.946;5.874;2022-12-18T13:21:01;0.60;88.80
43920;DHT22;29578;51.946;5.874;2022-12-18T13:23:30;0.60;88.80
43920;DHT22;29578;51.946;5.874;2022-12-18T13:25:58;0.60;88.80
43920;DHT22;29578;51.946;5.874;2022-12-18T13:28:52;0.60;88.80
43920;DHT22;29578;51.946;5.874;2022-12-18T13:34:25;0.60;88.70
43920;DHT22;29578;51.946;5.874;2022-12-18T13:36:53;0.60;88.70
43920;DHT22;29578;51.946;5.874;2022-12-18T13:39:23;0.60;88.70
43920;DHT22;29578;51.946;5.874;2022-12-18T13:42:31;0.50;88.70
43920;DHT22;29578;51.946;5.874;2022-12-18T13:44:59;0.60;88.70
43920;DHT22;29578;51.946;5.874;2022-12-18T13:47:34;0.60;88.70
43920;DHT22;29578;51.946;5.874;2022-12-18T13:50:03;0.60;88.70
43920;DHT22;29578;51.946;5.874;2022-12-18T13:52:36;0.60;88.70
43920;DHT22;29578;51.946;5.874;2022-12-18T13:55:07;0.60;88.70
43920;DHT22;29578;51.946;5.874;2022-12-18T13:57:40;0.60;88.70
43920;DHT22;29578;51.946;5.874;2022-12-18T14:03:01;0.60;88.70
43920;DHT22;29578;51.946;5.874;2022-12-18T14:05:30;0.60;88.70
43920;DHT22;29578;51.946;5.874;2022-12-18T14:08:09;0.60;88.70
43920;DHT22;29578;51.946;5.874;2022-12-18T14:10:41;0.70;88.70
43920;DHT22;29578;51.946;5.874;2022-12-18T14:13:09;0.60;88.70
43920;DHT22;29578;51.946;5.874;2022-12-18T14:15:44;0.60;88.60
43920;DHT22;29578;51.946;5.874;2022-12-18T14:18:21;0.60;89.20
43920;DHT22;29578;51.946;5.874;2022-12-18T14:20:48;0.60;88.70
43920;DHT22;29578;51.946;5.874;2022-12-18T14:23:33;0.60;88.70
43920;DHT22;29578;51.946;5.874;2022-12-18T14:26:01;0.60;89.20
43920;DHT22;29578;51.946;5.874;2022-12-18T14:28:27;0.60;88.60
43920;DHT22;29578;51.946;5.874;2022-12-18T14:30:53;0.60;88.60
43920;DHT22;29578;51.946;5.874;2022-12-18T14:33:23;0.60;88.60
43920;DHT22;29578;51.946;5.874;2022-12-18T14:36:05;0.60;88.60
43920;DHT22;29578;51.946;5.874;2022-12-18T14:38:35;0.60;88.50
43920;DHT22;29578;51.946;5.874;2022-12-18T14:41:09;0.50;88.40
43920;DHT22;29578;51.946;5.874;2022-12-18T14:43:37;0.60;88.40
43920;DHT22;29578;51.946;5.874;2022-12-18T14:46:05;0.50;88.40
43920;DHT22;29578;51.946;5.874;2022-12-18T14:48:40;0.60;88.40
43920;DHT22;29578;51.946;5.874;2022-12-18T14:51:17;0.60;88.40
43920;DHT22;29578;51.946;5.874;2022-12-18T14:53:46;0.50;88.30
43920;DHT22;29578;51.946;5.874;2022-12-18T14:56:27;0.50;88.40
43920;DHT22;29578;51.946;5.874;2022-12-18T14:58:58;0.50;88.40
43920;DHT22;29578;51.946;5.874;2022-12-18T15:01:56;0.50;88.30
43920;DHT22;29578;51.946;5.874;2022-12-18T15:04:39;0.50;88.30
43920;DHT22;29578;51.946;5.874;2022-12-18T15:07:19;0.50;88.30
43920;DHT22;29578;51.946;5.874;2022-12-18T15:10:10;0.50;88.30
43920;DHT22;29578;51.946;5.874;2022-12-18T15:12:40;0.60;88.40
43920;DHT22;29578;51.946;5.874;2022-12-18T15:18:15;0.50;88.40
43920;DHT22;29578;51.946;5.874;2022-12-18T15:20:48;0.40;88.30
43920;DHT22;29578;51.946;5.874;2022-12-18T15:23:26;0.40;88.30
43920;DHT22;29578;51.946;5.874;2022-12-18T15:26:02;0.40;88.30
43920;DHT22;29578;51.946;5.874;2022-12-18T15:28:36;0.40;88.30
43920;DHT22;29578;51.946;5.874;2022-12-18T15:31:23;0.40;88.30
43920;DHT22;29578;51.946;5.874;2022-12-18T15:34:12;0.40;88.30
43920;DHT22;29578;51.946;5.874;2022-12-18T15:36:38;0.30;88.30
43920;DHT22;29578;51.946;5.874;2022-12-18T15:39:04;0.40;88.30
43920;DHT22;29578;51.946;5.874;2022-12-18T15:41:32;0.30;88.20
43920;DHT22;29578;51.946;5.874;2022-12-18T15:43:59;0.40;88.30
43920;DHT22;29578;51.946;5.874;2022-12-18T15:46:25;0.30;88.20
43920;DHT22;29578;51.946;5.874;2022-12-18T15:48:53;0.40;88.20
43920;DHT22;29578;51.946;5.874;2022-12-18T15:51:23;0.40;88.20
43920;DHT22;29578;51.946;5.874;2022-12-18T15:53:53;0.30;88.20
43920;DHT22;29578;51.946;5.874;2022-12-18T15:56:19;0.30;88.20
43920;DHT22;29578;51.946;5.874;2022-12-18T15:59:00;0.30;88.20
43920;DHT22;29578;51.946;5.874;2022-12-18T16:01:28;0.30;88.20
43920;DHT22;29578;51.946;5.874;2022-12-18T16:03:54;0.30;88.30
43920;DHT22;29578;51.946;5.874;2022-12-18T16:06:21;0.30;88.20
43920;DHT22;29578;51.946;5.874;2022-12-18T16:08:46;0.30;88.20
43920;DHT22;29578;51.946;5.874;2022-12-18T16:11:26;0.30;88.20
43920;DHT22;29578;51.946;5.874;2022-12-18T16:14:27;0.30;88.20
43920;DHT22;29578;51.946;5.874;2022-12-18T16:16:56;0.20;88.10
43920;DHT22;29578;51.946;5.874;2022-12-18T16:19:22;0.30;88.20
43920;DHT22;29578;51.946;5.874;2022-12-18T16:21:50;0.20;88.10
43920;DHT22;29578;51.946;5.874;2022-12-18T16:24:19;0.30;88.10
43920;DHT22;29578;51.946;5.874;2022-12-18T16:26:47;0.20;88.10
43920;DHT22;29578;51.946;5.874;2022-12-18T16:29:13;0.30;88.10
43920;DHT22;29578;51.946;5.874;2022-12-18T16:31:39;0.20;88.10
43920;DHT22;29578;51.946;5.874;2022-12-18T16:34:20;0.20;88.10
43920;DHT22;29578;51.946;5.874;2022-12-18T16:36:48;0.20;88.00
43920;DHT22;29578;51.946;5.874;2022-12-18T16:39:14;0.20;88.00
43920;DHT22;29578;51.946;5.874;2022-12-18T16:41:39;0.40;88.20
43920;DHT22;29578;51.946;5.874;2022-12-18T16:44:05;0.20;88.10
43920;DHT22;29578;51.946;5.874;2022-12-18T16:46:31;0.20;88.00
43920;DHT22;29578;51.946;5.874;2022-12-18T16:48:57;0.20;88.00
43920;DHT22;29578;51.946;5.874;2022-12-18T16:51:25;0.20;88.00